Time,TemperatureF,DewpointF,PressureIn,WindDirection,WindDirectionDegrees,WindSpeedMPH,WindSpeedGustMPH,Humidity,HourlyPrecipIn,Conditions,Clouds,dailyrainin,SoftwareType,DateUTC
2013-08-04 00:01:00,79.2,63.2,30.02,SE,135,0.0,0.9,58,0.00,,,0.00,WUHU216HW,2013-08-03 22:01:00,
2013-08-04 00:06:00,79.0,63.0,30.02,SE,135,0.0,0.9,58,0.00,,,0.00,WUHU216HW,2013-08-03 22:06:00,
2013-08-04 00:11:00,78.7,63.2,30.03,SE,135,0.0,1.8,59,0.00,,,0.00,WUHU216HW,2013-08-03 22:11:00,
2013-08-04 00:16:00,78.5,63.0,30.03,NNE,23,0.0,1.8,59,0.00,,,0.00,WUHU216HW,2013-08-03 22:16:00,
2013-08-04 00:22:00,78.1,63.2,30.03,NNE,23,0.7,1.3,60,0.00,,,0.00,WUHU216HW,2013-08-03 22:22:00,
2013-08-04 00:27:00,78.1,63.2,30.03,SSE,158,0.0,0.9,60,0.00,,,0.00,WUHU216HW,2013-08-03 22:27:00,
2013-08-04 00:32:00,78.1,63.6,30.03,SSE,158,0.0,0.9,61,0.00,,,0.00,WUHU216HW,2013-08-03 22:32:00,
2013-08-04 00:37:00,77.9,63.5,30.03,SSE,158,0.7,0.7,61,0.00,,,0.00,WUHU216HW,2013-08-03 22:37:00,
2013-08-04 00:42:00,77.8,63.3,30.03,SSE,158,0.2,0.9,61,0.00,,,0.00,WUHU216HW,2013-08-03 22:42:00,
2013-08-04 00:47:00,77.4,63.4,30.04,SSE,158,0.0,0.9,62,0.00,,,0.00,WUHU216HW,2013-08-03 22:47:00,
2013-08-04 00:52:00,77.2,63.2,30.04,ESE,113,0.4,2.2,62,0.00,,,0.00,WUHU216HW,2013-08-03 22:52:00,
2013-08-04 00:57:00,77.0,63.0,30.04,ENE,68,0.7,2.2,62,0.00,,,0.00,WUHU216HW,2013-08-03 22:57:00,
2013-08-04 01:02:00,76.7,63.1,30.04,NNE,23,0.7,2.0,63,0.00,,,0.00,WUHU216HW,2013-08-03 23:02:00,
2013-08-04 01:07:00,76.7,63.1,30.04,ESE,113,1.1,2.0,63,0.00,,,0.00,WUHU216HW,2013-08-03 23:07:00,
2013-08-04 01:12:00,76.5,63.4,30.04,ESE,113,0.7,1.8,64,0.00,,,0.00,WUHU216HW,2013-08-03 23:12:00,
2013-08-04 01:17:00,76.5,63.4,30.03,ESE,113,0.9,1.8,64,0.00,,,0.00,WUHU216HW,2013-08-03 23:17:00,
2013-08-04 01:22:00,76.3,63.2,30.03,SE,135,0.9,1.8,64,0.00,,,0.00,WUHU216HW,2013-08-03 23:22:00,
2013-08-04 01:27:00,76.1,63.5,30.02,SE,135,0.4,1.6,65,0.00,,,0.00,WUHU216HW,2013-08-03 23:27:00,
2013-08-04 01:32:00,76.0,63.4,30.02,SE,135,0.9,1.6,65,0.00,,,0.00,WUHU216HW,2013-08-03 23:32:00,
2013-08-04 01:37:00,76.0,63.4,30.01,SSE,158,0.9,1.8,65,0.00,,,0.00,WUHU216HW,2013-08-03 23:37:00,
2013-08-04 01:42:00,75.8,63.6,30.01,ESE,113,2.0,2.0,66,0.00,,,0.00,WUHU216HW,2013-08-03 23:42:00,
2013-08-04 01:47:00,75.8,63.6,30.01,East,90,1.6,2.0,66,0.00,,,0.00,WUHU216HW,2013-08-03 23:47:00,
2013-08-04 01:52:00,75.6,63.5,30.01,SSE,158,0.0,1.6,66,0.00,,,0.00,WUHU216HW,2013-08-03 23:52:00,
2013-08-04 01:57:00,75.6,63.5,30.02,SW,225,1.1,1.6,66,0.00,,,0.00,WUHU216HW,2013-08-03 23:57:00,
2013-08-04 02:02:00,75.4,63.3,30.03,North,0,1.1,1.1,66,0.00,,,0.00,WUHU216HW,2013-08-04 00:02:00,
2013-08-04 02:07:00,75.4,63.3,30.03,North,0,1.1,1.1,66,0.00,,,0.00,WUHU216HW,2013-08-04 00:07:00,
2013-08-04 02:12:00,75.2,63.1,30.03,ESE,113,0.4,1.1,66,0.00,,,0.00,WUHU216HW,2013-08-04 00:12:00,
2013-08-04 02:17:00,75.2,63.6,30.02,ESE,113,0.0,1.1,67,0.00,,,0.00,WUHU216HW,2013-08-04 00:17:00,
2013-08-04 02:22:00,75.1,63.4,30.03,SE,135,1.1,1.1,67,0.00,,,0.00,WUHU216HW,2013-08-04 00:22:00,
2013-08-04 02:27:00,75.1,63.8,30.03,SW,225,1.1,1.1,68,0.00,,,0.00,WUHU216HW,2013-08-04 00:27:00,
2013-08-04 02:32:00,75.1,63.8,30.02,SW,225,0.0,1.1,68,0.00,,,0.00,WUHU216HW,2013-08-04 00:32:00,
2013-08-04 02:37:00,75.1,63.8,30.04,SW,225,0.2,1.1,68,0.00,,,0.00,WUHU216HW,2013-08-04 00:37:00,
2013-08-04 02:42:00,74.9,63.6,30.04,NW,315,0.4,1.1,68,0.00,,,0.00,WUHU216HW,2013-08-04 00:42:00,
2013-08-04 02:47:00,74.9,63.6,30.04,North,0,1.3,1.3,68,0.00,,,0.00,WUHU216HW,2013-08-04 00:47:00,
2013-08-04 02:52:00,74.7,63.9,30.05,NNW,338,0.0,1.8,69,0.00,,,0.00,WUHU216HW,2013-08-04 00:52:00,
2013-08-04 02:57:00,74.7,63.9,30.05,North,0,0.4,1.8,69,0.00,,,0.00,WUHU216HW,2013-08-04 00:57:00,
2013-08-04 03:02:00,74.5,63.7,30.04,NNE,23,3.8,3.8,69,0.00,,,0.00,WUHU216HW,2013-08-04 01:02:00,
2013-08-04 03:07:00,74.5,64.2,30.04,NNW,338,0.4,3.8,70,0.00,,,0.00,WUHU216HW,2013-08-04 01:07:00,
2013-08-04 03:12:00,74.5,64.5,30.04,NE,45,3.1,3.8,71,0.00,,,0.00,WUHU216HW,2013-08-04 01:12:00,
2013-08-04 03:17:00,74.3,64.0,30.06,WNW,293,2.5,3.1,70,0.00,,,0.00,WUHU216HW,2013-08-04 01:17:00,
2013-08-04 03:22:00,74.2,64.2,30.09,WNW,293,2.2,3.4,71,0.00,,,0.00,WUHU216HW,2013-08-04 01:22:00,